createdAt,value
2023-12-30T00:00:20.000Z,1001.1
2023-12-30T00:01:36.000Z,1001.1
2023-12-30T00:02:52.811Z,1001
2023-12-30T00:04:09.000Z,1001
2023-12-30T00:05:25.000Z,1001.2
2023-12-30T00:06:41.399Z,1001.1
2023-12-30T00:07:57.000Z,1001.1
2023-12-30T00:08:55.757Z,1001
2023-12-30T00:10:28.000Z,1001
2023-12-30T00:11:45.000Z,1001
2023-12-30T00:13:01.000Z,1001
2023-12-30T00:14:17.000Z,1001
2023-12-30T00:15:33.000Z,1001.1
2023-12-30T00:16:49.000Z,1001.1
2023-12-30T00:18:06.000Z,1001.1
2023-12-30T00:19:22.000Z,1001.1
2023-12-30T00:20:38.000Z,1001
2023-12-30T00:21:36.721Z,1001
2023-12-30T00:23:10.000Z,1001
2023-12-30T00:24:09.112Z,1001.1
2023-12-30T00:25:43.000Z,1001
2023-12-30T00:26:58.000Z,1001.1
2023-12-30T00:28:14.000Z,1000.9
2023-12-30T00:29:30.000Z,1000.9
2023-12-30T00:30:29.103Z,1000.7
2023-12-30T00:32:03.000Z,1000.7
2023-12-30T00:33:19.520Z,1000.5
2023-12-30T00:34:35.000Z,1000.6
2023-12-30T00:35:51.000Z,1000.5
2023-12-30T00:36:50.081Z,1000.5
2023-12-30T00:38:24.000Z,1000.6
2023-12-30T00:39:40.000Z,1000.6
2023-12-30T00:40:56.000Z,1000.7
2023-12-30T00:42:12.000Z,1000.7
2023-12-30T00:43:28.000Z,1000.9
2023-12-30T00:44:44.000Z,1000.9
2023-12-30T00:46:00.000Z,1001
2023-12-30T00:47:16.000Z,1001.2
2023-12-30T00:48:32.000Z,1001.1
2023-12-30T00:49:49.000Z,1001
2023-12-30T00:51:04.000Z,1001.1
2023-12-30T00:52:21.000Z,1001
2023-12-30T00:53:37.000Z,1001
2023-12-30T00:54:53.000Z,1001.1
2023-12-30T00:56:10.000Z,1001
2023-12-30T00:57:26.000Z,1001.1
2023-12-30T00:58:42.000Z,1001
2023-12-30T00:59:57.000Z,1001.1
2023-12-30T01:01:13.000Z,1001.1
2023-12-30T01:02:30.000Z,1001.1
2023-12-30T01:03:46.000Z,1001.2
2023-12-30T01:05:02.000Z,1001.2
2023-12-30T01:06:18.000Z,1001.2
2023-12-30T01:07:16.802Z,1001.3
2023-12-30T01:08:51.000Z,1001.2
2023-12-30T01:10:07.000Z,1001.2
2023-12-30T01:11:23.000Z,1001.2
2023-12-30T01:12:39.000Z,1001.2
2023-12-30T01:13:55.000Z,1001.3
2023-12-30T01:14:53.976Z,1001.3
2023-12-30T01:16:27.000Z,1001.2
2023-12-30T01:17:43.000Z,1001.2
2023-12-30T01:18:59.000Z,1001.3
2023-12-30T01:20:15.000Z,1001.5
2023-12-30T01:21:31.000Z,1001.4
2023-12-30T01:22:48.000Z,1001.5
2023-12-30T01:23:46.360Z,1001.5
2023-12-30T01:25:20.000Z,1001.3
2023-12-30T01:26:36.000Z,1001.2
2023-12-30T01:27:34.947Z,1001.4
2023-12-30T01:29:09.000Z,1001.4
2023-12-30T01:30:25.000Z,1001.3
2023-12-30T01:31:41.559Z,1001.4
2023-12-30T01:32:56.000Z,1001.6
2023-12-30T01:34:12.000Z,1001.4
2023-12-30T01:35:29.000Z,1001.4
2023-12-30T01:36:45.000Z,1001.4
2023-12-30T01:38:01.000Z,1001.5
2023-12-30T01:39:17.752Z,1001.4
2023-12-30T01:40:15.919Z,1001.4
2023-12-30T01:41:50.000Z,1001.4
2023-12-30T01:43:06.000Z,1001.5
2023-12-30T01:44:22.000Z,1001.6
2023-12-30T01:45:38.000Z,1001.6
2023-12-30T01:46:54.000Z,1001.7
2023-12-30T01:48:11.000Z,1001.6
2023-12-30T01:49:26.000Z,1001.5
2023-12-30T01:50:42.000Z,1001.5
2023-12-30T01:51:58.000Z,1001.5
2023-12-30T01:52:56.887Z,1001.5
2023-12-30T01:54:31.108Z,1001.5
2023-12-30T01:55:47.000Z,1001.5
2023-12-30T01:57:03.000Z,1001.6
2023-12-30T01:58:19.696Z,1001.5
2023-12-30T01:59:35.000Z,1001.6
2023-12-30T02:00:52.087Z,1001.3
2023-12-30T02:02:08.000Z,1001.5
2023-12-30T02:03:06.452Z,1001.5
2023-12-30T02:04:40.000Z,1001.6
2023-12-30T02:05:55.000Z,1001.6
2023-12-30T02:07:12.000Z,1001.6
2023-12-30T02:08:28.000Z,1001.6
2023-12-30T02:09:44.473Z,1001.6
2023-12-30T02:10:42.638Z,1001.6
2023-12-30T02:12:16.000Z,1001.7
2023-12-30T02:13:15.029Z,1001.6
2023-12-30T02:14:49.000Z,1001.7
2023-12-30T02:16:05.446Z,1001.7
2023-12-30T02:17:21.000Z,1001.7
2023-12-30T02:18:37.000Z,1001.7
2023-12-30T02:19:54.038Z,1001.7
2023-12-30T02:21:10.000Z,1001.6
2023-12-30T02:22:25.000Z,1001.5
2023-12-30T02:23:41.000Z,1001.6
2023-12-30T02:24:57.837Z,1001.6
2023-12-30T02:25:55.999Z,1001.6
2023-12-30T02:27:30.000Z,1001.6
2023-12-30T02:28:46.000Z,1001.5
2023-12-30T02:30:01.000Z,1001.6
2023-12-30T02:30:59.805Z,1001.5
2023-12-30T02:32:34.000Z,1001.6
2023-12-30T02:33:50.000Z,1001.6
2023-12-30T02:35:06.000Z,1001.7
2023-12-30T02:36:22.000Z,1001.7
2023-12-30T02:37:38.000Z,1001.7
2023-12-30T02:38:55.004Z,1001.8
2023-12-30T02:40:11.000Z,1001.8
2023-12-30T02:41:27.000Z,1001.8
2023-12-30T02:42:43.000Z,1001.7
2023-12-30T02:43:59.000Z,1001.8
2023-12-30T02:45:15.000Z,1001.8
2023-12-30T02:46:31.000Z,1001.8
2023-12-30T02:47:47.000Z,1001.8
2023-12-30T02:49:03.000Z,1001.9
2023-12-30T02:50:19.000Z,1001.9
2023-12-30T02:51:35.000Z,1001.9
2023-12-30T02:52:52.000Z,1001.8
2023-12-30T02:54:08.000Z,1001.8
2023-12-30T02:55:24.000Z,1001.7
2023-12-30T02:56:40.000Z,1001.6
2023-12-30T02:57:56.000Z,1001.7
2023-12-30T02:59:13.000Z,1001.8
2023-12-30T03:00:29.000Z,1001.8
2023-12-30T03:01:27.513Z,1001.8
2023-12-30T03:03:00.000Z,1001.8
2023-12-30T03:04:16.000Z,1001.8
2023-12-30T03:05:33.000Z,1001.8
2023-12-30T03:06:49.000Z,1001.9
2023-12-30T03:08:05.000Z,1001.9
2023-12-30T03:09:21.000Z,1001.8
2023-12-30T03:10:37.000Z,1001.9
2023-12-30T03:11:54.000Z,1001.9
2023-12-30T03:13:10.000Z,1001.9
2023-12-30T03:14:08.481Z,1001.9
2023-12-30T03:15:42.000Z,1001.9
2023-12-30T03:16:58.000Z,1001.8
2023-12-30T03:18:14.000Z,1001.8
2023-12-30T03:19:30.000Z,1001.8
2023-12-30T03:20:46.000Z,1001.9
2023-12-30T03:22:02.700Z,1001.9
2023-12-30T03:23:18.000Z,1001.9
2023-12-30T03:24:35.000Z,1001.9
2023-12-30T03:25:51.000Z,1001.9
2023-12-30T03:27:07.000Z,1001.8
2023-12-30T03:28:23.000Z,1001.9
2023-12-30T03:29:39.000Z,1001.9
2023-12-30T03:30:56.000Z,1001.9
2023-12-30T03:32:12.000Z,1001.7
2023-12-30T03:33:28.000Z,1001.6
2023-12-30T03:34:26.626Z,1001.5
2023-12-30T03:36:00.000Z,1001.3
2023-12-30T03:37:16.000Z,1001.5
2023-12-30T03:38:32.000Z,1001.6
2023-12-30T03:39:30.421Z,1001.5
2023-12-30T03:41:04.000Z,1001.4
2023-12-30T03:42:20.000Z,1001.5
2023-12-30T03:43:37.000Z,1001.5
2023-12-30T03:44:53.000Z,1001.6
2023-12-30T03:46:09.000Z,1001.6
2023-12-30T03:47:07.595Z,1001.7
2023-12-30T03:48:41.817Z,1001.6
2023-12-30T03:49:57.000Z,1001.6
2023-12-30T03:51:14.000Z,1001.6
2023-12-30T03:52:12.377Z,1001.7
2023-12-30T03:53:45.000Z,1001.6
2023-12-30T03:55:01.000Z,1001.7
2023-12-30T03:56:18.010Z,1001.6
2023-12-30T03:57:16.171Z,1001.5
2023-12-30T03:58:50.000Z,1001.6
2023-12-30T03:59:48.562Z,1001.7
2023-12-30T04:01:22.000Z,1001.8
2023-12-30T04:02:38.000Z,1001.7
2023-12-30T04:03:55.178Z,1001.7
2023-12-30T04:04:53.345Z,1001.7
2023-12-30T04:06:27.000Z,1001.8
2023-12-30T04:07:43.000Z,1001.8
2023-12-30T04:08:59.000Z,1001.9
2023-12-30T04:09:57.140Z,1001.8
2023-12-30T04:11:31.375Z,1001.9
2023-12-30T04:12:47.565Z,1001.9
2023-12-30T04:14:03.000Z,1001.9
2023-12-30T04:15:19.000Z,1001.9
2023-12-30T04:16:36.000Z,1002
2023-12-30T04:17:34.313Z,1002
2023-12-30T04:19:08.000Z,1002
2023-12-30T04:20:24.000Z,1001.9
2023-12-30T04:21:40.000Z,1001.9
2023-12-30T04:22:57.000Z,1001.9
2023-12-30T04:24:13.000Z,1002.1
2023-12-30T04:25:29.000Z,1002
2023-12-30T04:26:44.000Z,1002
2023-12-30T04:28:00.000Z,1002
2023-12-30T04:29:17.000Z,1002.1
2023-12-30T04:30:15.283Z,1002
2023-12-30T04:31:49.000Z,1002.1
2023-12-30T04:33:05.000Z,1002.1
2023-12-30T04:34:21.000Z,1002.1
2023-12-30T04:35:38.096Z,1002.2
2023-12-30T04:36:54.000Z,1002.2
2023-12-30T04:37:52.457Z,1002.2
2023-12-30T04:39:26.000Z,1002.3
2023-12-30T04:40:42.000Z,1002.3
2023-12-30T04:41:59.000Z,1002.3
2023-12-30T04:43:14.000Z,1002.2
2023-12-30T04:44:30.000Z,1002.2
2023-12-30T04:45:46.000Z,1002.3
2023-12-30T04:47:02.000Z,1002.4
2023-12-30T04:48:19.000Z,1002.3
2023-12-30T04:49:35.272Z,1002.3
2023-12-30T04:50:33.430Z,1002.4
2023-12-30T04:52:30.000Z,1002.3
2023-12-30T04:53:23.000Z,1002.4
2023-12-30T04:54:40.000Z,1002.4
2023-12-30T04:55:38.214Z,1002.5
2023-12-30T04:57:12.000Z,1002.5
2023-12-30T04:58:28.000Z,1002.5
2023-12-30T04:59:43.000Z,1002.5
2023-12-30T05:00:42.011Z,1002.6
2023-12-30T05:02:16.000Z,1002.5
2023-12-30T05:03:14.403Z,1002.5
2023-12-30T05:05:11.000Z,1002.6
2023-12-30T05:06:04.000Z,1002.5
2023-12-30T05:07:21.000Z,1002.5
2023-12-30T05:08:37.000Z,1002.6
2023-12-30T05:09:53.000Z,1002.7
2023-12-30T05:11:09.000Z,1002.7
2023-12-30T05:12:25.805Z,1002.7
2023-12-30T05:13:23.970Z,1002.6
2023-12-30T05:14:58.000Z,1002.7
2023-12-30T05:16:13.000Z,1002.9
2023-12-30T05:17:29.000Z,1002.9
2023-12-30T05:18:45.000Z,1002.8
2023-12-30T05:20:01.000Z,1002.8
2023-12-30T05:21:00.159Z,1003
2023-12-30T05:22:34.000Z,1002.9
2023-12-30T05:23:50.000Z,1002.9
2023-12-30T05:25:06.000Z,1002.9
2023-12-30T05:26:04.942Z,1002.9
2023-12-30T05:27:39.000Z,1002.8
2023-12-30T05:28:37.333Z,1002.9
2023-12-30T05:30:11.000Z,1002.9
2023-12-30T05:31:27.000Z,1003
2023-12-30T05:32:42.000Z,1003.1
2023-12-30T05:33:41.133Z,1003
2023-12-30T05:35:15.000Z,1002.9
2023-12-30T05:36:31.000Z,1003.1
2023-12-30T05:37:47.000Z,1003.1
2023-12-30T05:39:03.000Z,1003
2023-12-30T05:40:20.000Z,1003
2023-12-30T05:41:18.310Z,1003.1
2023-12-30T05:42:52.533Z,1003.2
2023-12-30T05:44:08.000Z,1003
2023-12-30T05:45:24.000Z,1003.1
2023-12-30T05:46:23.094Z,1003.3
2023-12-30T05:47:57.000Z,1003.3
2023-12-30T05:49:12.000Z,1003.2
2023-12-30T05:50:28.000Z,1003.4
2023-12-30T05:51:44.000Z,1003.4
2023-12-30T05:53:01.000Z,1003.3
2023-12-30T05:54:17.000Z,1003.4
2023-12-30T05:55:33.000Z,1003.4
2023-12-30T05:56:49.000Z,1003.5
2023-12-30T05:58:05.910Z,1003.4
2023-12-30T05:59:04.069Z,1003.6
2023-12-30T06:00:38.000Z,1003.5
2023-12-30T06:01:36.461Z,1003.6
2023-12-30T06:03:10.000Z,1003.6
2023-12-30T06:04:26.000Z,1003.6
2023-12-30T06:05:42.094Z,1003.6
2023-12-30T06:06:58.000Z,1003.7
2023-12-30T06:08:14.000Z,1003.6
2023-12-30T06:09:30.000Z,1003.7
2023-12-30T06:10:46.000Z,1003.7
2023-12-30T06:12:02.000Z,1003.7
2023-12-30T06:13:01.240Z,1003.7
2023-12-30T06:14:35.000Z,1003.7
2023-12-30T06:15:51.000Z,1003.7
2023-12-30T06:17:07.000Z,1003.7
2023-12-30T06:18:24.000Z,1003.8
2023-12-30T06:19:22.219Z,1003.9
2023-12-30T06:20:56.000Z,1003.8
2023-12-30T06:22:11.000Z,1003.8
2023-12-30T06:23:27.000Z,1003.9
2023-12-30T06:24:44.000Z,1003.9
2023-12-30T06:26:00.000Z,1003.9
2023-12-30T06:27:16.000Z,1004
2023-12-30T06:28:32.000Z,1003.9
2023-12-30T06:29:30.801Z,1004
2023-12-30T06:31:05.000Z,1004
2023-12-30T06:32:03.192Z,1004.1
2023-12-30T06:33:37.000Z,1004
2023-12-30T06:34:53.000Z,1004.1
2023-12-30T06:36:09.000Z,1004.1
2023-12-30T06:37:07.976Z,1004.1
2023-12-30T06:38:41.000Z,1004.1
2023-12-30T06:39:57.000Z,1004.1
2023-12-30T06:41:13.000Z,1004.1
2023-12-30T06:42:29.000Z,1004.1
2023-12-30T06:43:45.000Z,1004.1
2023-12-30T06:44:43.189Z,1004.2
2023-12-30T06:46:17.000Z,1004.3
2023-12-30T06:47:33.000Z,1004.2
2023-12-30T06:48:49.000Z,1004.2
2023-12-30T06:49:47.971Z,1004.3
2023-12-30T06:51:22.000Z,1004.3
2023-12-30T06:52:38.000Z,1004.3
2023-12-30T06:53:54.000Z,1004.4
2023-12-30T06:55:10.000Z,1004.3
2023-12-30T06:56:26.000Z,1004.4
2023-12-30T06:57:25.145Z,1004.4
2023-12-30T06:58:59.000Z,1004.4
2023-12-30T07:00:15.000Z,1004.5
2023-12-30T07:01:30.000Z,1004.5
2023-12-30T07:02:28.945Z,1004.5
2023-12-30T07:04:03.000Z,1004.5
2023-12-30T07:05:19.000Z,1004.6
2023-12-30T07:06:35.560Z,1004.6
2023-12-30T07:07:33.727Z,1004.6
2023-12-30T07:09:07.000Z,1004.6
2023-12-30T07:10:06.118Z,1004.6
2023-12-30T07:11:40.000Z,1004.6
2023-12-30T07:12:56.000Z,1004.6
2023-12-30T07:14:12.738Z,1004.7
2023-12-30T07:15:10.900Z,1004.6
2023-12-30T07:16:45.000Z,1004.7
2023-12-30T07:18:00.000Z,1004.7
2023-12-30T07:19:16.000Z,1004.7
2023-12-30T07:20:32.000Z,1004.8
2023-12-30T07:21:48.927Z,1004.8
2023-12-30T07:23:05.000Z,1004.8
2023-12-30T07:24:21.000Z,1004.8
2023-12-30T07:25:37.000Z,1004.8
2023-12-30T07:26:53.000Z,1004.8
2023-12-30T07:28:09.000Z,1004.8
2023-12-30T07:29:26.000Z,1004.8
2023-12-30T07:30:42.000Z,1004.8
2023-12-30T07:31:58.494Z,1004.9
2023-12-30T07:33:14.000Z,1004.9
2023-12-30T07:34:29.000Z,1004.9
2023-12-30T07:35:46.000Z,1004.9
2023-12-30T07:37:02.000Z,1004.9
2023-12-30T07:38:18.000Z,1005
2023-12-30T07:39:34.000Z,1004.9
2023-12-30T07:40:50.000Z,1005
2023-12-30T07:42:07.000Z,1004.9
2023-12-30T07:43:23.000Z,1005.1
2023-12-30T07:44:39.000Z,1005
2023-12-30T07:45:37.629Z,1005.1
2023-12-30T07:47:11.000Z,1005.1
2023-12-30T07:48:10.021Z,1005.2
2023-12-30T07:49:44.000Z,1005.1
2023-12-30T07:50:59.000Z,1005.1
2023-12-30T07:52:15.000Z,1005.1
2023-12-30T07:53:31.000Z,1005.1
2023-12-30T07:54:48.000Z,1005.2
2023-12-30T07:56:04.000Z,1005.2
2023-12-30T07:57:20.000Z,1005.1
2023-12-30T07:58:36.000Z,1005.2
2023-12-30T07:59:52.833Z,1005.2
2023-12-30T08:00:50.995Z,1005.2
2023-12-30T08:02:25.000Z,1005.3
2023-12-30T08:03:41.000Z,1005.3
2023-12-30T08:04:57.000Z,1005.4
2023-12-30T08:05:55.779Z,1005.4
2023-12-30T08:07:28.000Z,1005.3
2023-12-30T08:08:45.000Z,1005.4
2023-12-30T08:10:01.000Z,1005.5
2023-12-30T08:10:59.576Z,1005.5
2023-12-30T08:12:33.000Z,1005.5
2023-12-30T08:13:31.967Z,1005.5
2023-12-30T08:15:06.198Z,1005.5
2023-12-30T08:16:22.000Z,1005.4
2023-12-30T08:17:38.000Z,1005.5
2023-12-30T08:18:54.000Z,1005.5
2023-12-30T08:20:10.000Z,1005.5
2023-12-30T08:21:27.000Z,1005.5
2023-12-30T08:22:43.000Z,1005.5
2023-12-30T08:23:40.551Z,1005.5
2023-12-30T08:25:14.000Z,1005.6
2023-12-30T08:26:30.000Z,1005.5
2023-12-30T08:27:47.000Z,1005.4
2023-12-30T08:29:03.000Z,1005.4
2023-12-30T08:30:19.000Z,1005.5
2023-12-30T08:31:35.000Z,1005.4
2023-12-30T08:32:51.000Z,1005.5
2023-12-30T08:34:08.000Z,1005.4
2023-12-30T08:35:24.000Z,1005.5
2023-12-30T08:36:40.000Z,1005.5
2023-12-30T08:37:56.000Z,1005.5
2023-12-30T08:38:54.899Z,1005.5
2023-12-30T08:40:28.000Z,1005.6
2023-12-30T08:41:44.000Z,1005.6
2023-12-30T08:43:00.000Z,1005.6
2023-12-30T08:43:58.695Z,1005.6
2023-12-30T08:45:32.000Z,1005.6
2023-12-30T08:46:49.000Z,1005.7
2023-12-30T08:48:05.000Z,1005.7
2023-12-30T08:49:03.476Z,1005.7
2023-12-30T08:50:37.000Z,1005.6
2023-12-30T08:51:35.868Z,1005.8
2023-12-30T08:53:10.000Z,1005.8
2023-12-30T08:54:26.000Z,1005.8
2023-12-30T08:55:42.000Z,1005.7
2023-12-30T08:56:39.664Z,1005.8
2023-12-30T08:58:13.000Z,1005.8
2023-12-30T08:59:30.087Z,1005.8
2023-12-30T09:00:46.000Z,1005.8
2023-12-30T09:03:18.000Z,1005.8
2023-12-30T09:04:16.837Z,1005.8
2023-12-30T09:05:51.000Z,1005.7
2023-12-30T09:07:07.000Z,1005.8
2023-12-30T09:08:23.000Z,1005.6
2023-12-30T09:09:21.618Z,1005.8
2023-12-30T09:10:55.000Z,1005.7
2023-12-30T09:11:54.009Z,1005.8
2023-12-30T09:13:27.000Z,1005.9
2023-12-30T09:14:25.415Z,1005.8
2023-12-30T09:15:59.000Z,1005.9
2023-12-30T09:16:57.806Z,1006
2023-12-30T09:18:32.000Z,1006
2023-12-30T09:19:48.000Z,1006
2023-12-30T09:21:04.000Z,1006
2023-12-30T09:22:02.588Z,1006
2023-12-30T09:23:36.000Z,1006.2
2023-12-30T09:24:34.980Z,1006
2023-12-30T09:26:09.000Z,1006
2023-12-30T09:27:07.372Z,1006
2023-12-30T09:28:41.000Z,1005.9
2023-12-30T09:29:38.780Z,1006
2023-12-30T09:31:12.000Z,1006.1
2023-12-30T09:32:29.000Z,1006.2
2023-12-30T09:33:45.000Z,1006.1
2023-12-30T09:34:43.563Z,1006.1
2023-12-30T09:36:17.000Z,1006.1
2023-12-30T09:37:33.000Z,1006.1
2023-12-30T09:38:50.000Z,1006.2
2023-12-30T09:40:06.000Z,1006.2
2023-12-30T09:41:22.000Z,1006.2
2023-12-30T09:42:20.736Z,1006.2
2023-12-30T09:43:54.000Z,1006.2
2023-12-30T09:45:11.000Z,1006.3
2023-12-30T09:46:26.000Z,1006.4
2023-12-30T09:47:24.536Z,1006.4
2023-12-30T09:48:58.000Z,1006.3
2023-12-30T09:50:14.000Z,1006.4
2023-12-30T09:51:31.000Z,1006.3
2023-12-30T09:52:47.000Z,1006.3
2023-12-30T09:54:03.000Z,1006.4
2023-12-30T09:55:01.698Z,1006.4
2023-12-30T09:56:35.000Z,1006.4
2023-12-30T09:57:52.000Z,1006.4
2023-12-30T09:59:08.000Z,1006.4
2023-12-30T10:00:06.473Z,1006.5
2023-12-30T10:01:40.000Z,1006.5
2023-12-30T10:02:55.000Z,1006.6
2023-12-30T10:04:12.000Z,1006.5
2023-12-30T10:05:28.000Z,1006.6
2023-12-30T10:06:44.000Z,1006.6
2023-12-30T10:07:42.650Z,1006.6
2023-12-30T10:09:16.000Z,1006.6
2023-12-30T10:10:33.000Z,1006.6
2023-12-30T10:11:49.000Z,1006.5
2023-12-30T10:12:47.425Z,1006.6
2023-12-30T10:14:21.000Z,1006.5
2023-12-30T10:15:37.000Z,1006.6
2023-12-30T10:16:54.000Z,1006.5
2023-12-30T10:18:10.000Z,1006.6
2023-12-30T10:19:25.000Z,1006.7
2023-12-30T10:20:23.602Z,1006.7
2023-12-30T10:21:57.000Z,1006.7
2023-12-30T10:23:13.000Z,1006.6
2023-12-30T10:24:30.218Z,1006.8
2023-12-30T10:25:46.000Z,1006.7
2023-12-30T10:27:02.000Z,1006.8
2023-12-30T10:28:18.000Z,1006.7
2023-12-30T10:29:34.000Z,1006.9
2023-12-30T10:30:33.151Z,1006.8
2023-12-30T10:32:07.000Z,1006.8
2023-12-30T10:33:05.538Z,1006.8
2023-12-30T10:34:39.000Z,1006.8
2023-12-30T10:35:54.000Z,1006.9
2023-12-30T10:37:11.000Z,1006.7
2023-12-30T10:38:27.000Z,1006.8
2023-12-30T10:39:43.000Z,1006.9
2023-12-30T10:40:59.000Z,1006.9
2023-12-30T10:42:15.000Z,1007
2023-12-30T10:43:14.103Z,1006.9
2023-12-30T10:44:48.000Z,1006.9
2023-12-30T10:46:04.521Z,1007
2023-12-30T10:47:20.716Z,1007
2023-12-30T10:48:36.000Z,1007
2023-12-30T10:49:53.000Z,1006.9
2023-12-30T10:50:51.263Z,1007
2023-12-30T10:52:24.000Z,1006.9
2023-12-30T10:53:40.000Z,1006.9
2023-12-30T10:54:56.000Z,1006.9
2023-12-30T10:56:13.000Z,1007
2023-12-30T10:57:29.000Z,1007.1
2023-12-30T10:58:45.469Z,1007.1
2023-12-30T11:01:17.000Z,1007
2023-12-30T11:02:33.069Z,1007.1
2023-12-30T11:03:31.233Z,1007
2023-12-30T11:05:05.000Z,1007.1
2023-12-30T11:06:03.620Z,1006.9
2023-12-30T11:07:37.000Z,1007.1
2023-12-30T11:08:54.000Z,1007
2023-12-30T11:10:10.230Z,1007.1
2023-12-30T11:11:08.394Z,1006.9
2023-12-30T11:12:42.000Z,1007.1
2023-12-30T11:13:58.000Z,1007.1
2023-12-30T11:15:14.000Z,1007.1
2023-12-30T11:16:31.204Z,1007
2023-12-30T11:17:47.394Z,1006.9
2023-12-30T11:19:03.000Z,1007.1
2023-12-30T11:20:18.000Z,1007.1
2023-12-30T11:21:34.000Z,1007
2023-12-30T11:22:51.000Z,1007
2023-12-30T11:23:49.342Z,1007
2023-12-30T11:25:23.572Z,1007
2023-12-30T11:26:39.000Z,1007
2023-12-30T11:27:55.000Z,1007.2
2023-12-30T11:28:54.116Z,1007
2023-12-30T11:31:44.000Z,1006.9
2023-12-30T11:33:00.000Z,1006.9
2023-12-30T11:34:16.000Z,1006.8
2023-12-30T11:35:33.000Z,1006.8
2023-12-30T11:36:48.000Z,1006.8
2023-12-30T11:38:04.000Z,1006.7
2023-12-30T11:39:20.000Z,1006.8
2023-12-30T11:40:36.000Z,1006.7
2023-12-30T11:41:53.000Z,1006.8
2023-12-30T11:43:09.000Z,1006.8
2023-12-30T11:44:25.000Z,1006.8
2023-12-30T11:45:41.000Z,1006.8
2023-12-30T11:46:57.000Z,1006.8
2023-12-30T11:48:14.069Z,1006.7
2023-12-30T11:49:12.225Z,1006.7
2023-12-30T11:50:46.000Z,1006.8
2023-12-30T11:52:02.000Z,1006.7
2023-12-30T11:53:17.000Z,1006.7
2023-12-30T11:54:16.014Z,1006.8
2023-12-30T11:55:50.000Z,1006.8
2023-12-30T11:56:48.400Z,1006.8
2023-12-30T11:58:22.000Z,1006.8
2023-12-30T11:59:38.000Z,1006.7
2023-12-30T12:00:54.000Z,1006.8
2023-12-30T12:02:11.000Z,1006.8
2023-12-30T12:03:27.405Z,1006.8
2023-12-30T12:04:43.000Z,1006.7
2023-12-30T12:05:59.000Z,1006.9
2023-12-30T12:07:15.000Z,1006.8
2023-12-30T12:08:32.000Z,1006.8
2023-12-30T12:09:47.000Z,1006.7
2023-12-30T12:11:03.580Z,1006.8
2023-12-30T12:12:01.739Z,1006.7
2023-12-30T12:13:35.000Z,1006.8
2023-12-30T12:14:34.125Z,1006.8
2023-12-30T12:17:24.000Z,1006.8
2023-12-30T12:18:40.737Z,1006.7
2023-12-30T12:19:56.000Z,1006.7
2023-12-30T12:21:13.000Z,1006.8
2023-12-30T12:22:29.000Z,1006.8
2023-12-30T12:23:45.000Z,1006.7
2023-12-30T12:25:01.000Z,1006.7
2023-12-30T12:26:16.000Z,1006.7
2023-12-30T12:27:15.074Z,1006.8
2023-12-30T12:28:49.000Z,1006.7
2023-12-30T12:30:05.000Z,1006.7
2023-12-30T12:31:21.000Z,1006.7
2023-12-30T12:32:37.000Z,1006.7
2023-12-30T12:33:54.070Z,1006.8
2023-12-30T12:35:10.000Z,1006.7
2023-12-30T12:36:26.000Z,1006.7
2023-12-30T12:37:24.621Z,1006.8
2023-12-30T12:38:58.000Z,1006.8
2023-12-30T12:39:57.007Z,1006.7
2023-12-30T12:41:31.000Z,1006.8
2023-12-30T12:42:46.000Z,1006.7
2023-12-30T12:44:02.000Z,1006.7
2023-12-30T12:45:18.000Z,1006.7
2023-12-30T12:46:35.000Z,1006.8
2023-12-30T12:47:51.216Z,1006.7
2023-12-30T12:49:07.000Z,1006.7
2023-12-30T12:50:05.570Z,1006.7
2023-12-30T12:51:39.000Z,1006.8
2023-12-30T12:52:55.000Z,1006.9
2023-12-30T12:54:12.000Z,1006.8
2023-12-30T12:55:28.000Z,1006.9
2023-12-30T12:56:44.000Z,1007
2023-12-30T12:58:00.000Z,1006.9
2023-12-30T12:59:15.000Z,1006.9
2023-12-30T13:00:32.163Z,1006.9
2023-12-30T13:01:48.000Z,1007
2023-12-30T13:03:04.549Z,1007
2023-12-30T13:04:20.000Z,1007
2023-12-30T13:05:36.000Z,1007
2023-12-30T13:06:53.000Z,1006.9
2023-12-30T13:08:09.000Z,1007
2023-12-30T13:09:25.000Z,1007.1
2023-12-30T13:10:41.000Z,1007
2023-12-30T13:11:57.904Z,1007.1
2023-12-30T13:13:14.000Z,1006.9
2023-12-30T13:14:30.000Z,1007
2023-12-30T13:15:45.505Z,1007
2023-12-30T13:17:01.000Z,1007
2023-12-30T13:18:17.000Z,1007.1
2023-12-30T13:19:34.000Z,1006.9
2023-12-30T13:20:50.000Z,1007
2023-12-30T13:22:06.000Z,1007
2023-12-30T13:23:04.628Z,1006.9
2023-12-30T13:24:38.000Z,1007
2023-12-30T13:25:37.015Z,1006.9
2023-12-30T13:27:11.000Z,1007
2023-12-30T13:28:27.439Z,1007
2023-12-30T13:29:43.000Z,1007
2023-12-30T13:30:41.788Z,1007
2023-12-30T13:32:15.000Z,1007
2023-12-30T13:33:31.000Z,1007
2023-12-30T13:34:47.000Z,1007
2023-12-30T13:35:45.576Z,1007.1
2023-12-30T13:37:19.000Z,1007.1
2023-12-30T13:38:35.000Z,1007.1
2023-12-30T13:39:52.000Z,1007.1
2023-12-30T13:41:08.000Z,1007.2
2023-12-30T13:42:24.000Z,1007.2
2023-12-30T13:43:40.000Z,1007.1
2023-12-30T13:44:56.000Z,1007.1
2023-12-30T13:46:13.000Z,1007.2
2023-12-30T13:47:29.000Z,1007.2
2023-12-30T13:48:44.000Z,1007.3
2023-12-30T13:50:00.000Z,1007.2
2023-12-30T13:50:58.913Z,1007.2
2023-12-30T13:52:33.000Z,1007.2
2023-12-30T13:53:49.000Z,1007.3
2023-12-30T13:55:05.000Z,1007.2
2023-12-30T13:56:03.686Z,1007.2
2023-12-30T13:57:37.000Z,1007.2
2023-12-30T13:58:54.000Z,1007.3
2023-12-30T14:00:10.000Z,1007.2
2023-12-30T14:01:08.459Z,1007.2
2023-12-30T14:02:42.000Z,1007.4
2023-12-30T14:03:40.846Z,1007.3
2023-12-30T14:05:14.000Z,1007.3
2023-12-30T14:06:30.000Z,1007.3
2023-12-30T14:07:46.000Z,1007.4
2023-12-30T14:09:02.000Z,1007.4
2023-12-30T14:10:18.000Z,1007.3
2023-12-30T14:11:35.000Z,1007.4
2023-12-30T14:12:33.217Z,1007.4
2023-12-30T14:13:49.410Z,1007.4
2023-12-30T14:15:05.604Z,1007.5
2023-12-30T14:16:21.797Z,1007.5
2023-12-30T14:17:56.000Z,1007.5
2023-12-30T14:19:12.000Z,1007.6
2023-12-30T14:20:10.379Z,1007.5
2023-12-30T14:21:25.588Z,1007.5
2023-12-30T14:22:59.000Z,1007.6
2023-12-30T14:24:15.000Z,1007.6
2023-12-30T14:25:32.000Z,1007.6
2023-12-30T14:26:30.362Z,1007.7
2023-12-30T14:27:46.555Z,1007.6
2023-12-30T14:29:02.749Z,1007.6
2023-12-30T14:30:36.000Z,1007.7
2023-12-30T14:31:53.000Z,1007.6
2023-12-30T14:33:09.000Z,1007.7
2023-12-30T14:34:25.000Z,1007.7
2023-12-30T14:35:41.000Z,1007.7
2023-12-30T14:36:57.000Z,1007.7
2023-12-30T14:38:13.154Z,1007.7
2023-12-30T14:39:11.312Z,1007.8
2023-12-30T14:40:45.000Z,1007.8
2023-12-30T14:42:01.000Z,1007.8
2023-12-30T14:43:17.000Z,1007.8
2023-12-30T14:44:34.000Z,1007.7
2023-12-30T14:45:50.317Z,1007.7
2023-12-30T14:47:06.000Z,1007.7
2023-12-30T14:48:22.000Z,1007.7
2023-12-30T14:49:38.000Z,1007.8
2023-12-30T14:50:55.000Z,1007.7
2023-12-30T14:51:53.248Z,1007.8
2023-12-30T14:53:27.477Z,1007.9
2023-12-30T14:54:42.000Z,1007.9
2023-12-30T14:55:58.000Z,1007.8
2023-12-30T14:57:15.000Z,1007.9
2023-12-30T14:58:31.000Z,1007.9
2023-12-30T14:59:47.000Z,1007.9
2023-12-30T15:01:03.000Z,1007.8
2023-12-30T15:02:19.000Z,1007.8
2023-12-30T15:03:36.000Z,1007.8
2023-12-30T15:04:52.000Z,1007.8
2023-12-30T15:06:08.000Z,1007.8
2023-12-30T15:07:06.588Z,1007.8
2023-12-30T15:08:40.813Z,1007.9
2023-12-30T15:09:56.000Z,1007.9
2023-12-30T15:11:12.000Z,1007.9
2023-12-30T15:12:28.000Z,1007.9
2023-12-30T15:13:44.000Z,1007.9
2023-12-30T15:15:00.000Z,1007.9
2023-12-30T15:16:16.996Z,1007.9
2023-12-30T15:17:32.000Z,1007.9
2023-12-30T15:18:48.000Z,1007.9
2023-12-30T15:20:04.593Z,1008
2023-12-30T15:21:02.755Z,1008
2023-12-30T15:22:36.000Z,1008
2023-12-30T15:23:53.000Z,1008.1
2023-12-30T15:24:51.336Z,1008.1
2023-12-30T15:26:25.000Z,1008
2023-12-30T15:27:41.000Z,1008.2
2023-12-30T15:28:57.000Z,1008.2
2023-12-30T15:29:56.110Z,1008.2
2023-12-30T15:31:30.000Z,1008.2
2023-12-30T15:32:46.000Z,1008.2
2023-12-30T15:34:01.000Z,1008.1
2023-12-30T15:34:59.900Z,1008.2
2023-12-30T15:36:34.000Z,1008.2
2023-12-30T15:37:32.287Z,1008.2
2023-12-30T15:39:06.000Z,1008.3
2023-12-30T15:40:22.000Z,1008.2
2023-12-30T15:41:38.000Z,1008.2
2023-12-30T15:42:37.063Z,1008.2
2023-12-30T15:44:11.000Z,1008.2
2023-12-30T15:45:27.000Z,1008.2
2023-12-30T15:46:43.000Z,1008.3
2023-12-30T15:47:59.000Z,1008.2
2023-12-30T15:49:16.000Z,1008.2
2023-12-30T15:50:31.000Z,1008.2
2023-12-30T15:51:29.434Z,1008.3
2023-12-30T15:53:03.000Z,1008.3
2023-12-30T15:54:19.851Z,1008.3
2023-12-30T15:55:36.000Z,1008.3
2023-12-30T15:56:52.000Z,1008.3
2023-12-30T15:58:08.000Z,1008.3
2023-12-30T15:59:24.000Z,1008.3
2023-12-30T16:00:40.000Z,1008.4